sensor_id;sensor_type;location;lat;lon;timestamp;P1;durP1;ratioP1;P2;durP2;ratioP2
23868;SDS011;12115;47.128;15.422;2022-09-09T00:03:48;0.60;;;0.50;;
23868;SDS011;12115;47.128;15.422;2022-09-09T00:06:24;3.95;;;0.55;;
23868;SDS011;12115;47.128;15.422;2022-09-09T00:09:18;1.75;;;0.50;;
23868;SDS011;12115;47.128;15.422;2022-09-09T00:11:52;2.08;;;0.63;;
23868;SDS011;12115;47.128;15.422;2022-09-09T00:17:06;1.95;;;0.60;;
23868;SDS011;12115;47.128;15.422;2022-09-09T00:19:43;2.75;;;0.68;;
23868;SDS011;12115;47.128;15.422;2022-09-09T00:22:18;1.20;;;0.88;;
23868;SDS011;12115;47.128;15.422;2022-09-09T00:24:53;3.65;;;0.90;;
23868;SDS011;12115;47.128;15.422;2022-09-09T00:27:40;9.50;;;0.85;;
23868;SDS011;12115;47.128;15.422;2022-09-09T00:30:14;2.58;;;0.40;;
23868;SDS011;12115;47.128;15.422;2022-09-09T00:32:50;5.95;;;0.45;;
23868;SDS011;12115;47.128;15.422;2022-09-09T00:35:22;1.48;;;0.55;;
23868;SDS011;12115;47.128;15.422;2022-09-09T00:37:56;3.60;;;0.38;;
23868;SDS011;12115;47.128;15.422;2022-09-09T00:40:35;2.10;;;0.45;;
23868;SDS011;12115;47.128;15.422;2022-09-09T00:43:30;1.95;;;0.47;;
23868;SDS011;12115;47.128;15.422;2022-09-09T00:46:10;3.50;;;0.43;;
23868;SDS011;12115;47.128;15.422;2022-09-09T00:51:22;2.38;;;0.52;;
23868;SDS011;12115;47.128;15.422;2022-09-09T00:56:55;2.83;;;0.70;;
23868;SDS011;12115;47.128;15.422;2022-09-09T00:59:50;2.30;;;0.25;;
23868;SDS011;12115;47.128;15.422;2022-09-09T01:02:35;3.47;;;0.60;;
23868;SDS011;12115;47.128;15.422;2022-09-09T01:05:13;4.93;;;0.80;;
23868;SDS011;12115;47.128;15.422;2022-09-09T01:07:48;2.08;;;0.60;;
23868;SDS011;12115;47.128;15.422;2022-09-09T01:10:30;1.90;;;0.80;;
23868;SDS011;12115;47.128;15.422;2022-09-09T01:13:15;1.98;;;0.70;;
23868;SDS011;12115;47.128;15.422;2022-09-09T01:15:52;3.95;;;0.60;;
23868;SDS011;12115;47.128;15.422;2022-09-09T01:18:38;5.85;;;0.60;;
23868;SDS011;12115;47.128;15.422;2022-09-09T01:24:08;4.57;;;0.80;;
23868;SDS011;12115;47.128;15.422;2022-09-09T01:27:13;2.28;;;0.57;;
23868;SDS011;12115;47.128;15.422;2022-09-09T01:29:48;2.50;;;0.60;;
23868;SDS011;12115;47.128;15.422;2022-09-09T01:38:24;3.10;;;1.08;;
23868;SDS011;12115;47.128;15.422;2022-09-09T01:40:53;3.20;;;0.50;;
23868;SDS011;12115;47.128;15.422;2022-09-09T01:43:35;5.50;;;0.68;;
23868;SDS011;12115;47.128;15.422;2022-09-09T01:46:08;3.38;;;0.60;;
23868;SDS011;12115;47.128;15.422;2022-09-09T01:48:39;2.20;;;0.67;;
23868;SDS011;12115;47.128;15.422;2022-09-09T01:51:09;1.42;;;0.50;;
23868;SDS011;12115;47.128;15.422;2022-09-09T01:53:41;3.53;;;0.77;;
23868;SDS011;12115;47.128;15.422;2022-09-09T01:59:28;3.15;;;0.70;;
23868;SDS011;12115;47.128;15.422;2022-09-09T02:02:23;2.40;;;0.70;;
23868;SDS011;12115;47.128;15.422;2022-09-09T02:05:16;1.17;;;0.60;;
23868;SDS011;12115;47.128;15.422;2022-09-09T02:08:07;0.98;;;0.60;;
23868;SDS011;12115;47.128;15.422;2022-09-09T02:11:05;1.35;;;0.80;;
23868;SDS011;12115;47.128;15.422;2022-09-09T02:13:51;2.88;;;0.82;;
23868;SDS011;12115;47.128;15.422;2022-09-09T02:24:19;3.38;;;0.65;;
23868;SDS011;12115;47.128;15.422;2022-09-09T02:26:59;2.70;;;0.52;;
23868;SDS011;12115;47.128;15.422;2022-09-09T02:29:35;2.80;;;0.82;;
23868;SDS011;12115;47.128;15.422;2022-09-09T02:32:11;3.63;;;0.70;;
23868;SDS011;12115;47.128;15.422;2022-09-09T02:34:50;1.05;;;0.60;;
23868;SDS011;12115;47.128;15.422;2022-09-09T02:37:25;1.85;;;0.70;;
23868;SDS011;12115;47.128;15.422;2022-09-09T02:40:05;3.55;;;0.80;;
23868;SDS011;12115;47.128;15.422;2022-09-09T02:42:42;1.02;;;0.50;;
23868;SDS011;12115;47.128;15.422;2022-09-09T02:45:12;2.70;;;0.80;;
23868;SDS011;12115;47.128;15.422;2022-09-09T02:50:49;2.05;;;0.77;;
23868;SDS011;12115;47.128;15.422;2022-09-09T02:53:47;1.52;;;0.80;;
23868;SDS011;12115;47.128;15.422;2022-09-09T02:56:25;2.78;;;0.70;;
23868;SDS011;12115;47.128;15.422;2022-09-09T02:58:57;6.30;;;0.65;;
23868;SDS011;12115;47.128;15.422;2022-09-09T03:01:25;3.05;;;0.80;;
23868;SDS011;12115;47.128;15.422;2022-09-09T03:03:57;1.73;;;0.73;;
23868;SDS011;12115;47.128;15.422;2022-09-09T03:06:27;3.40;;;0.70;;
23868;SDS011;12115;47.128;15.422;2022-09-09T03:09:10;1.73;;;0.85;;
23868;SDS011;12115;47.128;15.422;2022-09-09T03:11:38;3.15;;;0.60;;
23868;SDS011;12115;47.128;15.422;2022-09-09T03:14:06;1.38;;;0.70;;
23868;SDS011;12115;47.128;15.422;2022-09-09T03:16:41;1.67;;;0.65;;
23868;SDS011;12115;47.128;15.422;2022-09-09T03:19:10;1.55;;;0.82;;
23868;SDS011;12115;47.128;15.422;2022-09-09T03:21:39;2.55;;;0.70;;
23868;SDS011;12115;47.128;15.422;2022-09-09T03:24:07;3.72;;;0.80;;
23868;SDS011;12115;47.128;15.422;2022-09-09T03:26:38;2.53;;;0.77;;
23868;SDS011;12115;47.128;15.422;2022-09-09T03:29:11;1.75;;;0.70;;
23868;SDS011;12115;47.128;15.422;2022-09-09T03:31:43;3.90;;;0.98;;
23868;SDS011;12115;47.128;15.422;2022-09-09T03:34:12;1.95;;;0.80;;
23868;SDS011;12115;47.128;15.422;2022-09-09T03:36:47;3.67;;;0.90;;
23868;SDS011;12115;47.128;15.422;2022-09-09T03:39:18;5.93;;;0.98;;
23868;SDS011;12115;47.128;15.422;2022-09-09T03:41:51;2.17;;;1.10;;
23868;SDS011;12115;47.128;15.422;2022-09-09T03:44:19;3.00;;;0.98;;
23868;SDS011;12115;47.128;15.422;2022-09-09T03:46:50;2.95;;;0.75;;
23868;SDS011;12115;47.128;15.422;2022-09-09T03:49:26;2.00;;;0.70;;
23868;SDS011;12115;47.128;15.422;2022-09-09T03:52:13;4.28;;;0.82;;
23868;SDS011;12115;47.128;15.422;2022-09-09T03:54:49;2.63;;;0.85;;
23868;SDS011;12115;47.128;15.422;2022-09-09T03:57:20;2.45;;;0.80;;
23868;SDS011;12115;47.128;15.422;2022-09-09T03:59:49;1.92;;;1.10;;
23868;SDS011;12115;47.128;15.422;2022-09-09T04:02:18;3.45;;;0.90;;
23868;SDS011;12115;47.128;15.422;2022-09-09T04:04:48;4.93;;;1.08;;
23868;SDS011;12115;47.128;15.422;2022-09-09T04:07:19;4.30;;;0.95;;
23868;SDS011;12115;47.128;15.422;2022-09-09T04:09:48;2.25;;;1.02;;
23868;SDS011;12115;47.128;15.422;2022-09-09T04:12:15;1.45;;;0.80;;
23868;SDS011;12115;47.128;15.422;2022-09-09T04:14:48;6.78;;;1.85;;
23868;SDS011;12115;47.128;15.422;2022-09-09T04:17:19;4.63;;;1.10;;
23868;SDS011;12115;47.128;15.422;2022-09-09T04:19:48;1.10;;;1.00;;
23868;SDS011;12115;47.128;15.422;2022-09-09T04:22:15;1.33;;;0.90;;
23868;SDS011;12115;47.128;15.422;2022-09-09T04:24:48;7.00;;;1.67;;
23868;SDS011;12115;47.128;15.422;2022-09-09T04:27:18;2.63;;;0.80;;
23868;SDS011;12115;47.128;15.422;2022-09-09T04:29:54;1.63;;;1.05;;
23868;SDS011;12115;47.128;15.422;2022-09-09T04:32:34;4.20;;;1.25;;
23868;SDS011;12115;47.128;15.422;2022-09-09T04:37:41;5.53;;;1.48;;
23868;SDS011;12115;47.128;15.422;2022-09-09T04:40:11;1.40;;;0.95;;
23868;SDS011;12115;47.128;15.422;2022-09-09T04:42:44;5.63;;;0.95;;
23868;SDS011;12115;47.128;15.422;2022-09-09T04:45:17;1.70;;;0.98;;
23868;SDS011;12115;47.128;15.422;2022-09-09T04:47:45;3.67;;;0.93;;
23868;SDS011;12115;47.128;15.422;2022-09-09T04:50:25;3.45;;;1.00;;
23868;SDS011;12115;47.128;15.422;2022-09-09T04:52:59;2.45;;;0.95;;
23868;SDS011;12115;47.128;15.422;2022-09-09T04:55:40;1.15;;;1.00;;
23868;SDS011;12115;47.128;15.422;2022-09-09T04:58:11;2.33;;;1.10;;
23868;SDS011;12115;47.128;15.422;2022-09-09T05:00:39;2.17;;;1.00;;
23868;SDS011;12115;47.128;15.422;2022-09-09T05:03:14;2.70;;;0.90;;
23868;SDS011;12115;47.128;15.422;2022-09-09T05:05:43;3.13;;;1.25;;
23868;SDS011;12115;47.128;15.422;2022-09-09T05:08:19;1.48;;;1.08;;
23868;SDS011;12115;47.128;15.422;2022-09-09T05:10:49;1.98;;;1.20;;
23868;SDS011;12115;47.128;15.422;2022-09-09T05:13:19;2.65;;;1.35;;
23868;SDS011;12115;47.128;15.422;2022-09-09T05:16:01;3.00;;;1.40;;
23868;SDS011;12115;47.128;15.422;2022-09-09T05:18:43;1.45;;;1.10;;
23868;SDS011;12115;47.128;15.422;2022-09-09T05:21:15;1.92;;;0.90;;
23868;SDS011;12115;47.128;15.422;2022-09-09T05:23:58;4.15;;;1.02;;
23868;SDS011;12115;47.128;15.422;2022-09-09T05:26:30;5.13;;;1.20;;
23868;SDS011;12115;47.128;15.422;2022-09-09T05:29:00;1.58;;;1.10;;
23868;SDS011;12115;47.128;15.422;2022-09-09T05:31:30;1.88;;;1.00;;
23868;SDS011;12115;47.128;15.422;2022-09-09T05:34:01;1.73;;;0.80;;
23868;SDS011;12115;47.128;15.422;2022-09-09T05:36:34;2.20;;;0.85;;
23868;SDS011;12115;47.128;15.422;2022-09-09T05:39:06;3.72;;;1.08;;
23868;SDS011;12115;47.128;15.422;2022-09-09T05:41:33;4.55;;;1.15;;
23868;SDS011;12115;47.128;15.422;2022-09-09T05:44:02;1.90;;;1.27;;
23868;SDS011;12115;47.128;15.422;2022-09-09T05:46:38;2.85;;;0.77;;
23868;SDS011;12115;47.128;15.422;2022-09-09T05:49:06;3.38;;;0.95;;
23868;SDS011;12115;47.128;15.422;2022-09-09T05:51:35;2.08;;;1.10;;
23868;SDS011;12115;47.128;15.422;2022-09-09T05:54:10;4.90;;;1.35;;
23868;SDS011;12115;47.128;15.422;2022-09-09T05:56:48;2.38;;;1.50;;
23868;SDS011;12115;47.128;15.422;2022-09-09T05:59:26;4.88;;;1.40;;
23868;SDS011;12115;47.128;15.422;2022-09-09T06:01:56;1.52;;;0.98;;
23868;SDS011;12115;47.128;15.422;2022-09-09T06:04:33;2.75;;;1.02;;
23868;SDS011;12115;47.128;15.422;2022-09-09T06:07:08;6.47;;;1.42;;
23868;SDS011;12115;47.128;15.422;2022-09-09T06:09:42;5.70;;;1.40;;
23868;SDS011;12115;47.128;15.422;2022-09-09T06:12:13;3.67;;;1.40;;
23868;SDS011;12115;47.128;15.422;2022-09-09T06:14:43;4.63;;;1.38;;
23868;SDS011;12115;47.128;15.422;2022-09-09T06:17:14;3.25;;;1.20;;
23868;SDS011;12115;47.128;15.422;2022-09-09T06:19:41;3.35;;;1.10;;
23868;SDS011;12115;47.128;15.422;2022-09-09T06:22:08;3.45;;;1.30;;
23868;SDS011;12115;47.128;15.422;2022-09-09T06:24:39;5.57;;;1.40;;
23868;SDS011;12115;47.128;15.422;2022-09-09T06:27:06;1.55;;;1.20;;
23868;SDS011;12115;47.128;15.422;2022-09-09T06:29:35;1.77;;;1.00;;
23868;SDS011;12115;47.128;15.422;2022-09-09T06:32:02;3.92;;;1.50;;
23868;SDS011;12115;47.128;15.422;2022-09-09T06:34:30;5.00;;;1.50;;
23868;SDS011;12115;47.128;15.422;2022-09-09T06:36:58;2.72;;;1.40;;
23868;SDS011;12115;47.128;15.422;2022-09-09T06:39:32;2.95;;;1.30;;
23868;SDS011;12115;47.128;15.422;2022-09-09T06:41:59;6.15;;;1.52;;
23868;SDS011;12115;47.128;15.422;2022-09-09T06:44:55;6.07;;;1.73;;
23868;SDS011;12115;47.128;15.422;2022-09-09T06:47:43;2.22;;;1.67;;
23868;SDS011;12115;47.128;15.422;2022-09-09T06:50:10;3.65;;;1.60;;
23868;SDS011;12115;47.128;15.422;2022-09-09T06:52:38;4.68;;;1.55;;
23868;SDS011;12115;47.128;15.422;2022-09-09T06:55:07;4.28;;;1.60;;
23868;SDS011;12115;47.128;15.422;2022-09-09T06:57:35;7.40;;;1.70;;
23868;SDS011;12115;47.128;15.422;2022-09-09T07:00:14;3.70;;;1.60;;
23868;SDS011;12115;47.128;15.422;2022-09-09T07:02:42;3.05;;;1.40;;
23868;SDS011;12115;47.128;15.422;2022-09-09T07:05:11;4.35;;;1.50;;
23868;SDS011;12115;47.128;15.422;2022-09-09T07:07:40;3.22;;;1.30;;
23868;SDS011;12115;47.128;15.422;2022-09-09T07:10:08;2.45;;;1.40;;
23868;SDS011;12115;47.128;15.422;2022-09-09T07:12:36;1.52;;;1.30;;
23868;SDS011;12115;47.128;15.422;2022-09-09T07:15:07;3.92;;;1.90;;
23868;SDS011;12115;47.128;15.422;2022-09-09T07:17:35;3.10;;;1.58;;
23868;SDS011;12115;47.128;15.422;2022-09-09T07:20:02;3.78;;;1.50;;
23868;SDS011;12115;47.128;15.422;2022-09-09T07:22:31;6.68;;;1.70;;
23868;SDS011;12115;47.128;15.422;2022-09-09T07:24:59;4.18;;;1.83;;
23868;SDS011;12115;47.128;15.422;2022-09-09T07:27:28;3.67;;;1.55;;
23868;SDS011;12115;47.128;15.422;2022-09-09T07:29:55;4.60;;;1.80;;
23868;SDS011;12115;47.128;15.422;2022-09-09T07:32:23;5.05;;;1.55;;
23868;SDS011;12115;47.128;15.422;2022-09-09T07:34:51;4.35;;;1.70;;
23868;SDS011;12115;47.128;15.422;2022-09-09T07:37:19;3.80;;;1.83;;
23868;SDS011;12115;47.128;15.422;2022-09-09T07:39:47;3.03;;;1.58;;
23868;SDS011;12115;47.128;15.422;2022-09-09T07:42:16;4.28;;;1.83;;
23868;SDS011;12115;47.128;15.422;2022-09-09T07:44:43;4.68;;;2.20;;
23868;SDS011;12115;47.128;15.422;2022-09-09T07:47:13;5.75;;;1.88;;
23868;SDS011;12115;47.128;15.422;2022-09-09T07:49:44;7.53;;;1.88;;
23868;SDS011;12115;47.128;15.422;2022-09-09T07:52:15;4.22;;;1.55;;
23868;SDS011;12115;47.128;15.422;2022-09-09T07:54:49;2.90;;;1.67;;
23868;SDS011;12115;47.128;15.422;2022-09-09T07:57:16;6.75;;;1.73;;
23868;SDS011;12115;47.128;15.422;2022-09-09T07:59:45;5.68;;;1.90;;
23868;SDS011;12115;47.128;15.422;2022-09-09T08:02:13;6.07;;;2.10;;
23868;SDS011;12115;47.128;15.422;2022-09-09T08:04:40;4.35;;;1.50;;
23868;SDS011;12115;47.128;15.422;2022-09-09T08:07:07;2.78;;;1.60;;
23868;SDS011;12115;47.128;15.422;2022-09-09T08:09:42;2.42;;;1.52;;
23868;SDS011;12115;47.128;15.422;2022-09-09T08:12:17;2.28;;;1.40;;
23868;SDS011;12115;47.128;15.422;2022-09-09T08:14:44;2.15;;;1.55;;
23868;SDS011;12115;47.128;15.422;2022-09-09T08:17:11;5.28;;;1.77;;
23868;SDS011;12115;47.128;15.422;2022-09-09T08:19:38;4.93;;;1.70;;
23868;SDS011;12115;47.128;15.422;2022-09-09T08:24:38;3.25;;;2.05;;
23868;SDS011;12115;47.128;15.422;2022-09-09T08:27:06;6.55;;;2.00;;
23868;SDS011;12115;47.128;15.422;2022-09-09T08:29:33;5.20;;;1.75;;
23868;SDS011;12115;47.128;15.422;2022-09-09T08:32:01;4.57;;;1.90;;
23868;SDS011;12115;47.128;15.422;2022-09-09T08:34:28;4.32;;;1.70;;
23868;SDS011;12115;47.128;15.422;2022-09-09T08:36:59;2.50;;;1.88;;
23868;SDS011;12115;47.128;15.422;2022-09-09T08:39:32;1.92;;;1.50;;
23868;SDS011;12115;47.128;15.422;2022-09-09T08:45:19;5.75;;;2.05;;
23868;SDS011;12115;47.128;15.422;2022-09-09T08:50:53;3.58;;;2.20;;
23868;SDS011;12115;47.128;15.422;2022-09-09T08:53:39;4.25;;;2.03;;
23868;SDS011;12115;47.128;15.422;2022-09-09T08:56:24;5.55;;;2.15;;
23868;SDS011;12115;47.128;15.422;2022-09-09T08:58:56;4.50;;;1.98;;
23868;SDS011;12115;47.128;15.422;2022-09-09T09:13:20;3.38;;;1.90;;
23868;SDS011;12115;47.128;15.422;2022-09-09T09:15:58;3.30;;;1.45;;
23868;SDS011;12115;47.128;15.422;2022-09-09T09:18:33;2.53;;;1.50;;
23868;SDS011;12115;47.128;15.422;2022-09-09T09:21:10;4.78;;;1.77;;
23868;SDS011;12115;47.128;15.422;2022-09-09T09:24:00;3.55;;;1.50;;
23868;SDS011;12115;47.128;15.422;2022-09-09T09:26:32;6.13;;;1.90;;
23868;SDS011;12115;47.128;15.422;2022-09-09T09:29:11;2.47;;;1.52;;
23868;SDS011;12115;47.128;15.422;2022-09-09T09:31:53;4.57;;;1.60;;
23868;SDS011;12115;47.128;15.422;2022-09-09T09:34:24;3.13;;;1.33;;
23868;SDS011;12115;47.128;15.422;2022-09-09T09:36:54;3.20;;;1.40;;
23868;SDS011;12115;47.128;15.422;2022-09-09T09:39:32;2.53;;;1.50;;
23868;SDS011;12115;47.128;15.422;2022-09-09T09:42:25;3.22;;;1.40;;
23868;SDS011;12115;47.128;15.422;2022-09-09T09:44:55;3.15;;;1.60;;
23868;SDS011;12115;47.128;15.422;2022-09-09T09:47:23;5.05;;;1.52;;
23868;SDS011;12115;47.128;15.422;2022-09-09T09:50:17;3.63;;;1.45;;
23868;SDS011;12115;47.128;15.422;2022-09-09T09:52:53;2.35;;;1.40;;
23868;SDS011;12115;47.128;15.422;2022-09-09T09:55:28;2.15;;;1.45;;
23868;SDS011;12115;47.128;15.422;2022-09-09T09:58:01;2.35;;;1.60;;
23868;SDS011;12115;47.128;15.422;2022-09-09T10:00:31;2.53;;;1.50;;
23868;SDS011;12115;47.128;15.422;2022-09-09T10:03:13;2.30;;;1.40;;
23868;SDS011;12115;47.128;15.422;2022-09-09T10:05:57;3.30;;;1.40;;
23868;SDS011;12115;47.128;15.422;2022-09-09T10:08:25;3.17;;;1.50;;
23868;SDS011;12115;47.128;15.422;2022-09-09T10:11:10;4.22;;;1.10;;
23868;SDS011;12115;47.128;15.422;2022-09-09T10:20:51;1.77;;;0.90;;
23868;SDS011;12115;47.128;15.422;2022-09-09T10:23:21;4.38;;;1.08;;
23868;SDS011;12115;47.128;15.422;2022-09-09T10:26:24;2.63;;;1.05;;
23868;SDS011;12115;47.128;15.422;2022-09-09T10:29:18;1.55;;;1.10;;
23868;SDS011;12115;47.128;15.422;2022-09-09T10:32:33;2.35;;;0.80;;
23868;SDS011;12115;47.128;15.422;2022-09-09T10:35:26;3.45;;;0.80;;
23868;SDS011;12115;47.128;15.422;2022-09-09T10:41:11;1.63;;;0.77;;
23868;SDS011;12115;47.128;15.422;2022-09-09T10:44:02;4.45;;;0.75;;
23868;SDS011;12115;47.128;15.422;2022-09-09T10:49:31;2.10;;;0.80;;
23868;SDS011;12115;47.128;15.422;2022-09-09T10:52:33;1.95;;;0.70;;
23868;SDS011;12115;47.128;15.422;2022-09-09T10:55:10;1.08;;;0.60;;
23868;SDS011;12115;47.128;15.422;2022-09-09T11:00:24;1.75;;;0.65;;
23868;SDS011;12115;47.128;15.422;2022-09-09T11:03:01;2.10;;;0.80;;
23868;SDS011;12115;47.128;15.422;2022-09-09T11:08:17;2.40;;;0.82;;
23868;SDS011;12115;47.128;15.422;2022-09-09T11:22:02;2.55;;;0.80;;
23868;SDS011;12115;47.128;15.422;2022-09-09T11:24:41;1.23;;;0.95;;
23868;SDS011;12115;47.128;15.422;2022-09-09T11:27:21;2.95;;;1.00;;
23868;SDS011;12115;47.128;15.422;2022-09-09T11:33:21;1.80;;;1.00;;
23868;SDS011;12115;47.128;15.422;2022-09-09T11:38:46;1.15;;;0.93;;
23868;SDS011;12115;47.128;15.422;2022-09-09T11:41:15;4.00;;;0.98;;
23868;SDS011;12115;47.128;15.422;2022-09-09T11:43:53;4.60;;;0.98;;
23868;SDS011;12115;47.128;15.422;2022-09-09T11:46:21;1.33;;;0.70;;
23868;SDS011;12115;47.128;15.422;2022-09-09T11:49:21;1.10;;;0.80;;
23868;SDS011;12115;47.128;15.422;2022-09-09T11:51:54;2.33;;;0.73;;
23868;SDS011;12115;47.128;15.422;2022-09-09T11:54:32;1.10;;;0.60;;
23868;SDS011;12115;47.128;15.422;2022-09-09T11:57:17;1.55;;;0.77;;
23868;SDS011;12115;47.128;15.422;2022-09-09T12:00:00;1.02;;;0.70;;
23868;SDS011;12115;47.128;15.422;2022-09-09T12:02:37;2.58;;;0.90;;
23868;SDS011;12115;47.128;15.422;2022-09-09T12:05:16;2.28;;;0.95;;
23868;SDS011;12115;47.128;15.422;2022-09-09T12:07:49;1.15;;;0.70;;
23868;SDS011;12115;47.128;15.422;2022-09-09T12:10:22;1.73;;;0.60;;
23868;SDS011;12115;47.128;15.422;2022-09-09T12:12:55;1.30;;;0.60;;
23868;SDS011;12115;47.128;15.422;2022-09-09T12:15:57;3.03;;;0.70;;
23868;SDS011;12115;47.128;15.422;2022-09-09T12:18:31;1.20;;;0.70;;
23868;SDS011;12115;47.128;15.422;2022-09-09T12:21:06;1.30;;;0.60;;
23868;SDS011;12115;47.128;15.422;2022-09-09T12:23:57;1.13;;;0.55;;
23868;SDS011;12115;47.128;15.422;2022-09-09T12:37:05;3.42;;;0.65;;
23868;SDS011;12115;47.128;15.422;2022-09-09T12:39:55;0.93;;;0.60;;
23868;SDS011;12115;47.128;15.422;2022-09-09T12:42:25;1.48;;;0.47;;
23868;SDS011;12115;47.128;15.422;2022-09-09T12:44:57;1.33;;;0.50;;
23868;SDS011;12115;47.128;15.422;2022-09-09T12:47:32;1.60;;;0.50;;
23868;SDS011;12115;47.128;15.422;2022-09-09T12:50:26;0.50;;;0.50;;
23868;SDS011;12115;47.128;15.422;2022-09-09T12:53:01;1.90;;;0.70;;
23868;SDS011;12115;47.128;15.422;2022-09-09T12:55:34;0.90;;;0.50;;
23868;SDS011;12115;47.128;15.422;2022-09-09T12:58:03;2.25;;;0.90;;
23868;SDS011;12115;47.128;15.422;2022-09-09T13:00:33;1.88;;;0.57;;
23868;SDS011;12115;47.128;15.422;2022-09-09T13:03:01;1.20;;;0.60;;
23868;SDS011;12115;47.128;15.422;2022-09-09T13:05:40;3.05;;;0.80;;
23868;SDS011;12115;47.128;15.422;2022-09-09T13:08:08;1.92;;;0.80;;
23868;SDS011;12115;47.128;15.422;2022-09-09T13:10:41;3.22;;;0.70;;
23868;SDS011;12115;47.128;15.422;2022-09-09T13:13:35;1.67;;;0.73;;
23868;SDS011;12115;47.128;15.422;2022-09-09T13:16:02;1.58;;;0.65;;
23868;SDS011;12115;47.128;15.422;2022-09-09T13:18:37;3.60;;;0.93;;
23868;SDS011;12115;47.128;15.422;2022-09-09T13:21:08;2.85;;;1.00;;
23868;SDS011;12115;47.128;15.422;2022-09-09T13:23:36;3.58;;;0.90;;
23868;SDS011;12115;47.128;15.422;2022-09-09T13:26:05;0.88;;;0.77;;
23868;SDS011;12115;47.128;15.422;2022-09-09T13:28:47;1.27;;;1.10;;
23868;SDS011;12115;47.128;15.422;2022-09-09T13:33:50;3.00;;;1.13;;
23868;SDS011;12115;47.128;15.422;2022-09-09T13:36:40;2.95;;;1.10;;
23868;SDS011;12115;47.128;15.422;2022-09-09T13:39:17;4.32;;;1.05;;
23868;SDS011;12115;47.128;15.422;2022-09-09T13:41:45;3.05;;;0.80;;
23868;SDS011;12115;47.128;15.422;2022-09-09T13:44:25;2.53;;;1.15;;
23868;SDS011;12115;47.128;15.422;2022-09-09T13:49:40;1.42;;;1.00;;
23868;SDS011;12115;47.128;15.422;2022-09-09T13:52:12;2.22;;;0.90;;
23868;SDS011;12115;47.128;15.422;2022-09-09T13:54:40;2.13;;;1.10;;
23868;SDS011;12115;47.128;15.422;2022-09-09T13:57:14;2.42;;;1.05;;
23868;SDS011;12115;47.128;15.422;2022-09-09T13:59:46;2.58;;;1.00;;
23868;SDS011;12115;47.128;15.422;2022-09-09T14:02:31;1.48;;;0.98;;
23868;SDS011;12115;47.128;15.422;2022-09-09T14:04:59;2.85;;;1.05;;
23868;SDS011;12115;47.128;15.422;2022-09-09T14:07:26;3.38;;;1.38;;
23868;SDS011;12115;47.128;15.422;2022-09-09T14:09:53;1.50;;;1.10;;
23868;SDS011;12115;47.128;15.422;2022-09-09T14:12:20;1.92;;;1.10;;
23868;SDS011;12115;47.128;15.422;2022-09-09T14:14:47;2.75;;;0.93;;
23868;SDS011;12115;47.128;15.422;2022-09-09T14:17:16;5.25;;;1.00;;
23868;SDS011;12115;47.128;15.422;2022-09-09T14:19:43;2.90;;;1.17;;
23868;SDS011;12115;47.128;15.422;2022-09-09T14:22:12;2.42;;;1.30;;
23868;SDS011;12115;47.128;15.422;2022-09-09T14:24:39;2.05;;;1.20;;
23868;SDS011;12115;47.128;15.422;2022-09-09T14:27:07;2.75;;;1.60;;
23868;SDS011;12115;47.128;15.422;2022-09-09T14:29:34;3.63;;;1.35;;
23868;SDS011;12115;47.128;15.422;2022-09-09T14:32:01;2.22;;;1.30;;
23868;SDS011;12115;47.128;15.422;2022-09-09T14:34:28;2.92;;;1.42;;
23868;SDS011;12115;47.128;15.422;2022-09-09T14:36:55;2.83;;;1.55;;
23868;SDS011;12115;47.128;15.422;2022-09-09T14:39:22;2.42;;;1.10;;
23868;SDS011;12115;47.128;15.422;2022-09-09T14:41:49;2.25;;;1.30;;
23868;SDS011;12115;47.128;15.422;2022-09-09T14:44:16;3.30;;;1.60;;
23868;SDS011;12115;47.128;15.422;2022-09-09T14:46:43;3.92;;;1.75;;
23868;SDS011;12115;47.128;15.422;2022-09-09T14:49:11;3.63;;;1.40;;
23868;SDS011;12115;47.128;15.422;2022-09-09T14:51:39;2.03;;;1.42;;
23868;SDS011;12115;47.128;15.422;2022-09-09T14:54:06;3.97;;;1.50;;
23868;SDS011;12115;47.128;15.422;2022-09-09T14:56:33;4.40;;;1.40;;
23868;SDS011;12115;47.128;15.422;2022-09-09T14:59:03;3.38;;;1.40;;
23868;SDS011;12115;47.128;15.422;2022-09-09T15:01:31;5.07;;;1.40;;
23868;SDS011;12115;47.128;15.422;2022-09-09T15:03:59;2.05;;;1.42;;
23868;SDS011;12115;47.128;15.422;2022-09-09T15:06:29;2.65;;;1.40;;
23868;SDS011;12115;47.128;15.422;2022-09-09T15:08:59;4.25;;;1.77;;
23868;SDS011;12115;47.128;15.422;2022-09-09T15:11:28;3.58;;;1.40;;
23868;SDS011;12115;47.128;15.422;2022-09-09T15:13:56;3.47;;;1.20;;
23868;SDS011;12115;47.128;15.422;2022-09-09T15:16:26;2.90;;;1.50;;
23868;SDS011;12115;47.128;15.422;2022-09-09T15:18:55;3.15;;;1.00;;
23868;SDS011;12115;47.128;15.422;2022-09-09T15:21:24;1.90;;;1.08;;
23868;SDS011;12115;47.128;15.422;2022-09-09T15:23:54;4.30;;;0.90;;
23868;SDS011;12115;47.128;15.422;2022-09-09T15:26:21;1.27;;;1.00;;
23868;SDS011;12115;47.128;15.422;2022-09-09T15:28:49;2.72;;;1.20;;
23868;SDS011;12115;47.128;15.422;2022-09-09T15:36:19;3.30;;;0.90;;
23868;SDS011;12115;47.128;15.422;2022-09-09T15:38:51;2.15;;;1.00;;
23868;SDS011;12115;47.128;15.422;2022-09-09T15:41:19;2.33;;;1.00;;
23868;SDS011;12115;47.128;15.422;2022-09-09T15:43:48;2.13;;;0.95;;
23868;SDS011;12115;47.128;15.422;2022-09-09T15:48:44;3.30;;;0.77;;
23868;SDS011;12115;47.128;15.422;2022-09-09T15:51:15;2.80;;;1.10;;
23868;SDS011;12115;47.128;15.422;2022-09-09T15:54:02;2.80;;;1.13;;
23868;SDS011;12115;47.128;15.422;2022-09-09T15:56:30;2.50;;;0.90;;
23868;SDS011;12115;47.128;15.422;2022-09-09T15:58:58;1.30;;;0.90;;
23868;SDS011;12115;47.128;15.422;2022-09-09T16:01:28;3.35;;;1.45;;
23868;SDS011;12115;47.128;15.422;2022-09-09T16:03:57;1.85;;;1.25;;
23868;SDS011;12115;47.128;15.422;2022-09-09T16:06:27;1.50;;;1.20;;
23868;SDS011;12115;47.128;15.422;2022-09-09T16:08:56;1.65;;;0.93;;
23868;SDS011;12115;47.128;15.422;2022-09-09T16:11:25;1.58;;;0.98;;
23868;SDS011;12115;47.128;15.422;2022-09-09T16:13:55;1.98;;;1.23;;
23868;SDS011;12115;47.128;15.422;2022-09-09T16:16:23;2.72;;;1.15;;
23868;SDS011;12115;47.128;15.422;2022-09-09T16:19:08;5.18;;;1.13;;
23868;SDS011;12115;47.128;15.422;2022-09-09T16:21:40;3.60;;;1.10;;
23868;SDS011;12115;47.128;15.422;2022-09-09T16:24:14;3.00;;;0.82;;
23868;SDS011;12115;47.128;15.422;2022-09-09T16:26:45;1.15;;;0.90;;
23868;SDS011;12115;47.128;15.422;2022-09-09T16:29:15;1.00;;;0.90;;
23868;SDS011;12115;47.128;15.422;2022-09-09T16:31:44;2.78;;;0.73;;
23868;SDS011;12115;47.128;15.422;2022-09-09T16:34:12;1.52;;;0.80;;
23868;SDS011;12115;47.128;15.422;2022-09-09T16:36:42;1.90;;;0.65;;
23868;SDS011;12115;47.128;15.422;2022-09-09T16:39:11;2.55;;;0.98;;
23868;SDS011;12115;47.128;15.422;2022-09-09T16:41:40;2.55;;;1.00;;
23868;SDS011;12115;47.128;15.422;2022-09-09T16:44:10;1.05;;;0.82;;
23868;SDS011;12115;47.128;15.422;2022-09-09T16:46:39;1.25;;;0.95;;
23868;SDS011;12115;47.128;15.422;2022-09-09T16:49:09;1.15;;;0.63;;
23868;SDS011;12115;47.128;15.422;2022-09-09T16:51:41;1.95;;;0.70;;
23868;SDS011;12115;47.128;15.422;2022-09-09T16:54:11;1.92;;;0.73;;
23868;SDS011;12115;47.128;15.422;2022-09-09T16:56:41;2.97;;;1.00;;
23868;SDS011;12115;47.128;15.422;2022-09-09T16:59:11;2.90;;;0.98;;
23868;SDS011;12115;47.128;15.422;2022-09-09T17:01:48;4.00;;;0.90;;
23868;SDS011;12115;47.128;15.422;2022-09-09T17:04:17;1.45;;;0.95;;
23868;SDS011;12115;47.128;15.422;2022-09-09T17:06:51;0.93;;;0.90;;
23868;SDS011;12115;47.128;15.422;2022-09-09T17:09:20;2.00;;;0.90;;